Time;durP1;ratioP1;P1;durP2;ratioP2;P2;SDS_P1;SDS_P2;PMS_P1;PMS_P2;Temp;Humidity;BMP_temperature;BMP_pressure;BME280_temperature;BME280_humidity;BME280_pressure;Samples;Min_cycle;Max_cycle;Signal;HPM_P1;HPM_P2
2021/10/05 00:01:15;;;;;;;13.60;11.85;;;11.80;99.90;;;;;;4873665;29;20239;-69
2021/10/05 00:03:44;;;;;;;12.32;11.02;;;11.80;99.90;;;;;;4873771;29;20214;-70
2021/10/05 00:06:10;;;;;;;13.20;11.73;;;11.80;99.90;;;;;;4872873;29;20247;-70
2021/10/05 00:08:37;;;;;;;11.95;10.75;;;11.80;99.90;;;;;;4874225;29;20483;-70
2021/10/05 00:11:04;;;;;;;15.65;12.90;;;11.80;99.90;;;;;;4873715;29;20585;-70
2021/10/05 00:13:30;;;;;;;13.20;11.80;;;11.80;99.90;;;;;;4873911;29;20703;-70
2021/10/05 00:15:57;;;;;;;18.80;12.00;;;11.80;99.90;;;;;;4873604;29;20918;-69
2021/10/05 00:18:24;;;;;;;14.90;12.18;;;11.80;99.90;;;;;;4874903;29;20475;-70
2021/10/05 00:20:52;;;;;;;13.13;11.75;;;11.80;99.90;;;;;;4875553;29;20207;-70
2021/10/05 00:23:19;;;;;;;14.85;11.75;;;11.80;99.90;;;;;;4934609;23;20238;-74
2021/10/05 00:25:46;;;;;;;13.52;11.20;;;11.90;99.90;;;;;;4869486;29;20744;-75
2021/10/05 00:28:12;;;;;;;12.93;10.82;;;11.80;99.90;;;;;;4876648;29;20588;-74
2021/10/05 00:30:39;;;;;;;12.10;10.80;;;11.90;99.90;;;;;;4876251;29;20214;-74
2021/10/05 00:33:06;;;;;;;13.30;11.90;;;11.80;99.90;;;;;;4876592;29;20207;-74
2021/10/05 00:35:33;;;;;;;12.98;11.63;;;11.80;99.90;;;;;;4876424;29;20488;-74
2021/10/05 00:38:01;;;;;;;15.60;12.67;;;11.80;99.90;;;;;;4894581;29;20810;-74
2021/10/05 00:40:28;;;;;;;15.13;12.82;;;11.80;99.90;;;;;;4895243;29;20478;-74
2021/10/05 00:42:55;;;;;;;13.32;11.80;;;11.80;99.90;;;;;;4894887;29;20605;-73
2021/10/05 00:45:22;;;;;;;16.20;13.45;;;11.80;99.90;;;;;;4894864;29;20230;-74
2021/10/05 00:47:49;;;;;;;17.42;13.43;;;11.80;99.90;;;;;;4894375;29;20206;-74
2021/10/05 00:50:16;;;;;;;18.73;14.70;;;11.80;99.90;;;;;;4895275;29;20206;-74
2021/10/05 00:52:44;;;;;;;14.48;12.75;;;11.80;99.90;;;;;;4894731;29;20234;-73
2021/10/05 00:55:12;;;;;;;13.98;12.43;;;11.80;99.90;;;;;;4894945;29;20230;-74
2021/10/05 00:57:39;;;;;;;17.40;14.55;;;11.80;99.90;;;;;;4894210;29;20211;-74
2021/10/05 01:00:08;;;;;;;17.45;13.32;;;11.90;99.90;;;;;;4895266;29;20627;-73
2021/10/05 01:02:35;;;;;;;17.98;15.05;;;11.90;99.90;;;;;;4894477;29;20227;-74
2021/10/05 01:05:02;;;;;;;15.60;13.52;;;11.80;99.90;;;;;;4895051;29;20253;-74
2021/10/05 01:07:28;;;;;;;15.18;13.15;;;11.80;99.90;;;;;;4897633;29;20207;-74
2021/10/05 01:09:56;;;;;;;15.00;13.32;;;11.80;99.90;;;;;;4898327;29;20207;-74
2021/10/05 01:12:24;;;;;;;15.35;12.95;;;11.90;99.90;;;;;;4898654;29;20343;-74
2021/10/05 01:14:51;;;;;;;14.43;12.93;;;11.80;99.90;;;;;;4897952;29;20309;-74
2021/10/05 01:17:19;;;;;;;15.80;13.30;;;11.80;99.90;;;;;;4898041;29;20573;-74
2021/10/05 01:19:46;;;;;;;14.55;13.02;;;11.80;99.90;;;;;;4897906;29;20243;-74
2021/10/05 01:22:15;;;;;;;15.40;12.65;;;11.80;99.90;;;;;;4898462;29;20245;-74
2021/10/05 01:24:41;;;;;;;15.00;12.50;;;11.80;99.90;;;;;;4897841;29;20230;-74
2021/10/05 01:27:08;;;;;;;15.38;12.65;;;11.80;99.90;;;;;;4897509;29;20213;-74
2021/10/05 01:29:35;;;;;;;17.20;13.15;;;11.80;99.90;;;;;;4898124;29;20701;-74
2021/10/05 01:32:04;;;;;;;14.88;12.27;;;11.80;99.90;;;;;;4897762;29;20675;-73
2021/10/05 01:34:32;;;;;;;17.25;13.57;;;11.80;99.90;;;;;;4897965;29;20597;-74
2021/10/05 01:36:59;;;;;;;15.13;13.52;;;11.80;99.90;;;;;;4897458;29;20217;-74
2021/10/05 01:39:29;;;;;;;16.50;13.98;;;11.80;99.90;;;;;;4883095;29;20211;-74
2021/10/05 01:41:57;;;;;;;15.18;12.15;;;11.80;99.90;;;;;;4876005;29;20230;-74
2021/10/05 01:44:24;;;;;;;14.82;12.23;;;11.80;99.90;;;;;;4874957;29;20220;-73
2021/10/05 01:46:51;;;;;;;17.80;13.95;;;11.80;99.90;;;;;;4876247;29;20694;-73
2021/10/05 01:49:19;;;;;;;15.50;12.30;;;11.70;99.90;;;;;;4878604;29;20207;-74
2021/10/05 01:51:46;;;;;;;14.50;12.90;;;11.70;99.90;;;;;;4879146;29;20626;-74
2021/10/05 01:54:13;;;;;;;15.32;12.93;;;11.70;99.90;;;;;;4878754;29;20735;-74
2021/10/05 01:56:42;;;;;;;14.23;12.35;;;11.70;99.90;;;;;;4878571;29;20203;-74
2021/10/05 01:59:09;;;;;;;16.45;12.32;;;11.70;99.90;;;;;;4879268;29;20218;-74
2021/10/05 02:01:38;;;;;;;16.80;13.95;;;11.80;99.90;;;;;;4878717;29;20350;-74
2021/10/05 02:04:05;;;;;;;15.57;12.40;;;11.80;99.90;;;;;;4878995;29;20227;-74
2021/10/05 02:06:32;;;;;;;16.30;13.25;;;11.80;99.90;;;;;;4878410;29;20214;-74
2021/10/05 02:08:58;;;;;;;14.77;12.10;;;11.80;99.90;;;;;;4878856;29;20237;-74
2021/10/05 02:11:25;;;;;;;16.90;12.60;;;11.80;99.90;;;;;;4878996;29;20557;-73
2021/10/05 02:13:53;;;;;;;14.52;12.23;;;11.80;99.90;;;;;;4878520;29;20487;-74
2021/10/05 02:16:20;;;;;;;14.43;12.40;;;11.80;99.90;;;;;;4878557;29;20210;-74
2021/10/05 02:18:47;;;;;;;15.75;12.77;;;11.80;99.90;;;;;;4878413;29;20222;-74
2021/10/05 02:21:14;;;;;;;15.95;12.35;;;11.80;99.90;;;;;;4879128;29;20302;-74
2021/10/05 02:26:21;;;;;;;17.85;12.85;;;11.80;99.90;;;;;;4878071;29;20207;-74
2021/10/05 02:28:48;;;;;;;14.13;12.60;;;11.80;99.90;;;;;;4878442;29;20226;-74
2021/10/05 02:31:16;;;;;;;15.02;11.65;;;11.80;99.90;;;;;;4878698;29;20218;-74
2021/10/05 02:33:43;;;;;;;14.15;10.95;;;11.70;99.90;;;;;;4878369;29;20199;-73
2021/10/05 02:36:10;;;;;;;15.98;11.82;;;11.70;99.90;;;;;;4878099;29;20207;-74
2021/10/05 02:38:37;;;;;;;13.10;11.63;;;11.70;99.90;;;;;;4878488;29;20211;-74
2021/10/05 02:41:04;;;;;;;13.25;11.25;;;11.80;99.90;;;;;;4878394;29;20215;-73
2021/10/05 02:43:31;;;;;;;14.65;11.80;;;11.70;99.90;;;;;;4878170;29;20227;-73
2021/10/05 02:45:57;;;;;;;15.90;11.50;;;11.80;99.90;;;;;;4877706;29;20226;-74
2021/10/05 02:48:25;;;;;;;12.63;11.20;;;11.70;99.90;;;;;;4878608;29;20207;-74
2021/10/05 02:50:52;;;;;;;14.75;12.10;;;11.70;99.90;;;;;;4878314;29;20211;-73
2021/10/05 02:53:19;;;;;;;13.60;10.80;;;11.80;99.90;;;;;;4878135;29;20237;-74
2021/10/05 02:55:47;;;;;;;13.10;10.95;;;11.70;99.90;;;;;;4877477;29;20231;-73
2021/10/05 02:58:14;;;;;;;14.13;10.70;;;11.70;99.90;;;;;;4878413;29;20639;-74
2021/10/05 03:00:41;;;;;;;12.52;11.02;;;11.70;99.90;;;;;;4877934;29;20218;-74
2021/10/05 03:03:08;;;;;;;13.15;10.65;;;11.70;99.90;;;;;;4878567;29;20226;-74
2021/10/05 03:05:36;;;;;;;12.07;9.85;;;11.70;99.90;;;;;;4877900;29;20238;-74
2021/10/05 03:08:06;;;;;;;12.43;9.85;;;11.70;99.90;;;;;;4877789;29;20211;-74
2021/10/05 03:10:33;;;;;;;14.77;11.45;;;11.70;99.90;;;;;;4877872;29;20203;-74
2021/10/05 03:13:00;;;;;;;12.32;10.50;;;11.70;99.90;;;;;;4877967;29;20204;-74
2021/10/05 03:15:26;;;;;;;12.30;10.47;;;11.70;99.90;;;;;;4877736;29;20596;-74
2021/10/05 03:17:53;;;;;;;14.13;10.85;;;11.70;99.90;;;;;;4877151;29;20475;-74
2021/10/05 03:20:20;;;;;;;13.52;10.73;;;11.70;99.90;;;;;;4878008;29;20211;-74
2021/10/05 03:22:48;;;;;;;11.93;9.60;;;11.70;99.90;;;;;;4877237;29;20235;-74
2021/10/05 03:25:15;;;;;;;12.77;10.38;;;11.80;99.90;;;;;;4877491;29;20234;-74
2021/10/05 03:27:42;;;;;;;11.95;9.70;;;11.80;99.90;;;;;;4876728;29;20211;-74
2021/10/05 03:30:10;;;;;;;12.00;9.88;;;11.70;99.90;;;;;;4877344;29;20218;-74
2021/10/05 03:32:37;;;;;;;12.88;9.93;;;11.70;99.90;;;;;;4880111;29;20199;-73
2021/10/05 03:35:04;;;;;;;12.90;10.27;;;11.70;99.90;;;;;;4876906;29;20228;-74
2021/10/05 03:37:31;;;;;;;13.68;11.27;;;11.70;99.90;;;;;;4884187;29;20208;-74
2021/10/05 03:39:59;;;;;;;14.45;10.60;;;11.80;99.90;;;;;;4885177;29;20234;-74
2021/10/05 03:42:27;;;;;;;12.75;10.40;;;11.80;99.90;;;;;;4885039;29;20683;-75
2021/10/05 03:44:54;;;;;;;15.77;10.35;;;11.70;99.90;;;;;;4885862;29;20620;-74
2021/10/05 03:47:20;;;;;;;13.48;10.20;;;11.70;99.90;;;;;;4884695;29;20214;-74
2021/10/05 03:49:47;;;;;;;16.38;10.95;;;11.70;99.90;;;;;;4886010;29;20199;-74
2021/10/05 03:52:14;;;;;;;13.32;9.80;;;11.70;99.90;;;;;;4884620;29;20247;-75
2021/10/05 03:54:42;;;;;;;12.45;9.68;;;11.70;99.90;;;;;;4884685;29;20233;-74
2021/10/05 03:57:10;;;;;;;13.48;10.95;;;11.70;99.90;;;;;;4888336;29;20854;-74
2021/10/05 03:59:37;;;;;;;12.63;10.00;;;11.80;99.90;;;;;;4886745;29;20202;-74
2021/10/05 04:02:04;;;;;;;18.60;10.45;;;11.80;99.90;;;;;;4884185;29;20198;-74
2021/10/05 04:04:31;;;;;;;13.05;9.48;;;11.70;99.90;;;;;;4880987;29;20219;-74
2021/10/05 04:06:57;;;;;;;13.75;10.95;;;11.70;99.90;;;;;;4884243;29;20203;-74
2021/10/05 04:09:24;;;;;;;14.63;9.93;;;11.70;99.90;;;;;;4884114;29;20225;-74
2021/10/05 04:11:51;;;;;;;10.45;8.85;;;11.70;99.90;;;;;;4882090;29;20472;-74
2021/10/05 04:14:19;;;;;;;11.75;9.15;;;11.80;99.90;;;;;;4884897;29;20681;-73
2021/10/05 04:16:46;;;;;;;11.40;9.13;;;11.80;99.90;;;;;;4885794;29;20709;-73
2021/10/05 04:19:13;;;;;;;13.13;10.02;;;11.80;99.90;;;;;;4884258;29;20203;-74
2021/10/05 04:21:40;;;;;;;13.25;10.00;;;11.80;99.90;;;;;;4884817;29;20205;-74
2021/10/05 04:24:06;;;;;;;10.07;8.13;;;11.70;99.90;;;;;;4885376;29;20222;-73
2021/10/05 04:26:33;;;;;;;11.88;9.10;;;11.70;99.90;;;;;;4877751;29;20203;-73
2021/10/05 04:29:00;;;;;;;10.43;8.52;;;11.70;99.90;;;;;;4878929;29;20211;-73
2021/10/05 04:31:28;;;;;;;12.73;8.90;;;11.70;99.90;;;;;;4875919;29;20588;-74
2021/10/05 04:33:55;;;;;;;11.80;9.38;;;11.70;99.90;;;;;;4876790;29;20484;-73
2021/10/05 04:36:21;;;;;;;9.27;7.57;;;11.70;99.90;;;;;;4876450;29;20214;-73
2021/10/05 04:38:48;;;;;;;11.65;9.05;;;11.70;99.90;;;;;;4876997;29;20203;-73
2021/10/05 04:41:15;;;;;;;10.00;7.55;;;11.70;99.90;;;;;;4879488;29;20214;-73
2021/10/05 04:43:41;;;;;;;10.95;8.02;;;11.70;99.90;;;;;;4880367;29;20229;-73
2021/10/05 04:46:08;;;;;;;12.25;8.18;;;11.70;99.90;;;;;;4880641;29;20560;-74
2021/10/05 04:48:36;;;;;;;10.35;7.68;;;11.70;99.90;;;;;;4880420;29;20467;-73
2021/10/05 04:51:03;;;;;;;10.95;8.50;;;11.70;99.90;;;;;;4880530;29;20615;-73
2021/10/05 04:53:30;;;;;;;11.15;8.55;;;11.70;99.90;;;;;;4879940;29;20218;-73
2021/10/05 04:55:56;;;;;;;11.65;8.13;;;11.70;99.90;;;;;;4879776;29;20213;-73
2021/10/05 04:58:23;;;;;;;11.32;8.02;;;11.70;99.90;;;;;;4879994;29;20214;-73
2021/10/05 05:00:50;;;;;;;9.60;7.82;;;11.70;99.90;;;;;;4880242;29;20207;-73
2021/10/05 05:03:17;;;;;;;10.13;7.95;;;11.70;99.90;;;;;;4879919;29;20712;-73
2021/10/05 05:05:45;;;;;;;10.07;8.95;;;11.70;99.90;;;;;;4879429;29;20238;-74
2021/10/05 05:08:12;;;;;;;11.07;8.45;;;11.70;99.90;;;;;;4880259;29;20199;-73
2021/10/05 05:10:39;;;;;;;11.50;8.02;;;11.70;99.90;;;;;;4879966;29;20816;-74
2021/10/05 05:13:05;;;;;;;9.40;7.60;;;11.70;99.90;;;;;;4879833;29;20581;-73
2021/10/05 05:15:32;;;;;;;12.45;9.48;;;11.70;99.90;;;;;;4879678;29;20235;-73
2021/10/05 05:17:59;;;;;;;11.63;8.52;;;11.70;99.90;;;;;;4879450;29;20242;-73
2021/10/05 05:20:26;;;;;;;12.48;8.75;;;11.70;99.90;;;;;;4879877;29;20211;-73
2021/10/05 05:22:54;;;;;;;12.43;8.93;;;11.70;99.90;;;;;;4879725;29;20234;-74
2021/10/05 05:25:22;;;;;;;10.18;8.63;;;11.70;99.90;;;;;;4879809;29;20238;-74
2021/10/05 05:27:49;;;;;;;9.10;7.93;;;11.70;99.90;;;;;;4879328;29;20294;-73
2021/10/05 05:30:16;;;;;;;12.70;8.73;;;11.70;99.90;;;;;;4879928;29;20212;-74
2021/10/05 05:32:42;;;;;;;11.00;8.05;;;11.70;99.90;;;;;;4879597;29;20576;-73
2021/10/05 05:35:10;;;;;;;11.48;8.20;;;11.70;99.90;;;;;;4879479;29;20237;-73
2021/10/05 05:37:36;;;;;;;9.90;7.50;;;11.70;99.90;;;;;;4879161;29;20668;-73
2021/10/05 05:40:05;;;;;;;10.65;8.00;;;11.70;99.90;;;;;;4879559;29;20218;-73
2021/10/05 05:42:32;;;;;;;11.23;7.80;;;11.70;99.90;;;;;;4879463;29;20624;-73
2021/10/05 05:44:59;;;;;;;9.73;7.70;;;11.60;99.90;;;;;;4879477;29;20595;-73
2021/10/05 05:47:26;;;;;;;9.80;7.35;;;11.60;99.90;;;;;;4879081;29;20233;-73
2021/10/05 05:49:52;;;;;;;11.15;8.95;;;11.70;99.90;;;;;;4879402;29;20211;-74
2021/10/05 05:52:19;;;;;;;9.38;7.72;;;11.70;99.90;;;;;;4879229;29;20579;-73
2021/10/05 05:54:46;;;;;;;10.10;8.38;;;11.70;99.90;;;;;;4879298;29;20226;-73
2021/10/05 05:57:14;;;;;;;10.30;7.18;;;11.70;99.90;;;;;;4878799;29;20694;-73
2021/10/05 05:59:41;;;;;;;9.02;7.32;;;11.70;99.90;;;;;;4879255;29;20214;-74
2021/10/05 06:02:07;;;;;;;8.43;6.95;;;11.70;99.90;;;;;;4879189;29;20211;-73
2021/10/05 06:04:34;;;;;;;8.27;7.22;;;11.70;99.90;;;;;;4878947;29;20231;-73
2021/10/05 06:07:01;;;;;;;11.50;8.05;;;11.70;99.90;;;;;;4878494;29;20214;-73
2021/10/05 06:09:27;;;;;;;11.00;6.97;;;11.70;99.90;;;;;;4879031;29;20203;-73
2021/10/05 06:12:01;;;;;;;10.25;7.57;;;11.70;99.90;;;;;;4878901;29;20668;-74
2021/10/05 06:14:29;;;;;;;9.00;7.40;;;11.70;99.90;;;;;;4878862;29;20598;-73
2021/10/05 06:16:56;;;;;;;14.07;7.65;;;11.70;99.90;;;;;;4879028;29;20219;-74
2021/10/05 06:19:23;;;;;;;10.75;7.57;;;11.70;99.90;;;;;;4879654;29;20218;-73
2021/10/05 06:21:50;;;;;;;9.07;6.80;;;11.70;99.90;;;;;;4878825;29;20211;-73
2021/10/05 06:24:16;;;;;;;11.27;7.50;;;11.70;99.90;;;;;;4903337;23;20235;-69
2021/10/05 06:26:44;;;;;;;7.55;5.85;;;11.80;99.90;;;;;;4878399;29;20207;-70
2021/10/05 06:29:11;;;;;;;9.40;7.20;;;11.80;99.90;;;;;;4879199;29;20215;-70
2021/10/05 06:31:39;;;;;;;9.02;7.18;;;11.80;99.90;;;;;;4878976;29;20230;-69
2021/10/05 06:34:06;;;;;;;10.10;7.20;;;11.90;99.90;;;;;;4878674;29;20233;-69
2021/10/05 06:36:33;;;;;;;8.18;6.68;;;11.90;99.90;;;;;;4885229;29;20218;-69
2021/10/05 06:38:59;;;;;;;9.07;6.57;;;11.90;99.90;;;;;;4883360;29;20230;-70
2021/10/05 06:41:26;;;;;;;10.23;7.20;;;11.90;99.90;;;;;;4883017;29;20588;-69
2021/10/05 06:43:53;;;;;;;7.90;6.30;;;11.90;99.90;;;;;;4882364;29;20283;-71
2021/10/05 06:46:20;;;;;;;9.27;6.72;;;11.90;99.90;;;;;;4881918;29;20215;-69
2021/10/05 06:48:48;;;;;;;11.43;6.57;;;11.90;99.90;;;;;;4882512;29;20544;-69
2021/10/05 06:51:14;;;;;;;8.50;6.30;;;12.00;99.90;;;;;;4882169;29;20471;-69
2021/10/05 06:53:41;;;;;;;10.02;5.80;;;12.00;99.90;;;;;;4881850;29;20733;-69
2021/10/05 06:56:08;;;;;;;9.15;5.95;;;12.00;99.90;;;;;;4880957;29;20210;-69
2021/10/05 06:58:35;;;;;;;9.18;5.95;;;12.00;99.90;;;;;;4881383;29;20211;-69
2021/10/05 07:01:01;;;;;;;7.35;5.65;;;12.00;99.90;;;;;;4881523;29;20215;-69
2021/10/05 07:03:28;;;;;;;6.20;5.50;;;12.00;99.90;;;;;;4880714;29;20227;-69
2021/10/05 07:05:57;;;;;;;5.85;4.85;;;12.00;99.90;;;;;;4876243;29;20467;-68
2021/10/05 07:08:24;;;;;;;7.03;4.72;;;12.00;99.90;;;;;;4881520;29;20214;-67
2021/10/05 07:10:51;;;;;;;6.00;4.80;;;12.00;99.90;;;;;;4883116;29;20978;-68
2021/10/05 07:13:18;;;;;;;5.72;5.03;;;12.00;99.90;;;;;;4882246;29;20213;-69
2021/10/05 07:15:45;;;;;;;7.43;5.80;;;12.10;99.90;;;;;;4876963;29;20230;-69
2021/10/05 07:18:12;;;;;;;7.55;6.07;;;12.10;99.90;;;;;;4877206;29;20214;-69
2021/10/05 07:20:39;;;;;;;7.75;6.00;;;12.10;99.90;;;;;;4877251;29;20215;-69
2021/10/05 07:23:07;;;;;;;9.90;7.65;;;12.10;99.90;;;;;;4876783;29;20618;-69
2021/10/05 07:25:34;;;;;;;12.70;8.80;;;12.20;99.90;;;;;;4877053;29;20266;-69
2021/10/05 07:28:00;;;;;;;11.02;8.50;;;12.20;99.90;;;;;;4876933;29;20215;-69
2021/10/05 07:30:28;;;;;;;10.77;8.40;;;12.10;99.90;;;;;;4877366;29;21161;-69
2021/10/05 07:32:56;;;;;;;10.75;8.00;;;12.10;99.90;;;;;;4877144;29;20211;-69
2021/10/05 07:35:23;;;;;;;12.45;9.40;;;12.10;99.90;;;;;;4876554;29;20227;-69
2021/10/05 07:37:50;;;;;;;13.43;8.75;;;12.10;99.90;;;;;;4876633;29;20204;-70
2021/10/05 07:40:20;;;;;;;10.63;8.60;;;12.10;99.90;;;;;;4876795;29;20230;-70
2021/10/05 07:42:47;;;;;;;11.05;7.70;;;12.10;99.90;;;;;;4877170;29;20266;-69
2021/10/05 07:45:15;;;;;;;10.70;8.33;;;12.00;99.90;;;;;;4876525;29;20613;-69
2021/10/05 07:47:41;;;;;;;9.40;7.70;;;12.00;99.90;;;;;;4876360;29;20559;-69
2021/10/05 07:50:09;;;;;;;8.20;6.40;;;12.10;99.90;;;;;;4874049;29;20613;-70
2021/10/05 07:52:36;;;;;;;9.10;7.25;;;12.10;99.90;;;;;;4875798;29;20214;-69
2021/10/05 07:55:04;;;;;;;9.55;7.05;;;12.10;99.90;;;;;;4875906;29;20219;-70
2021/10/05 07:57:32;;;;;;;8.15;6.65;;;12.10;99.90;;;;;;4875942;29;20215;-69
2021/10/05 07:59:59;;;;;;;7.82;6.50;;;12.10;99.90;;;;;;4876232;29;20290;-69
2021/10/05 08:02:26;;;;;;;7.00;5.80;;;12.10;99.90;;;;;;4877149;29;20234;-70
2021/10/05 08:04:53;;;;;;;5.82;5.15;;;12.20;99.90;;;;;;4876094;29;20283;-69
2021/10/05 08:07:21;;;;;;;6.95;5.72;;;12.20;99.90;;;;;;4873231;29;20215;-70
2021/10/05 08:09:48;;;;;;;5.70;4.88;;;12.20;99.90;;;;;;4877197;29;20203;-69
2021/10/05 08:12:14;;;;;;;6.70;5.45;;;12.20;99.90;;;;;;4876541;29;20214;-69
2021/10/05 08:14:46;;;;;;;6.20;5.22;;;12.20;99.90;;;;;;4876467;29;20227;-69
2021/10/05 08:17:14;;;;;;;5.65;5.05;;;12.20;99.90;;;;;;4876387;29;20222;-69
2021/10/05 08:19:41;;;;;;;5.65;5.03;;;12.20;99.90;;;;;;4877318;29;20207;-69
2021/10/05 08:22:08;;;;;;;5.00;3.97;;;12.20;99.90;;;;;;4876296;29;20210;-69
2021/10/05 08:24:36;;;;;;;4.40;4.00;;;12.20;99.90;;;;;;4876607;29;20235;-69
2021/10/05 08:27:05;;;;;;;4.32;3.92;;;12.10;99.90;;;;;;4875615;29;20246;-70
2021/10/05 08:29:32;;;;;;;4.15;3.85;;;12.10;99.90;;;;;;4877427;29;20255;-69
2021/10/05 08:32:01;;;;;;;5.68;3.70;;;12.10;99.90;;;;;;4880963;29;20214;-69
2021/10/05 08:34:28;;;;;;;4.60;4.13;;;12.10;99.90;;;;;;4880509;29;20227;-69
2021/10/05 08:36:55;;;;;;;5.50;4.25;;;12.10;99.90;;;;;;4879702;29;20207;-69
2021/10/05 08:39:22;;;;;;;4.30;3.90;;;12.00;99.90;;;;;;4879174;29;20210;-70
2021/10/05 08:41:49;;;;;;;4.88;4.25;;;12.10;99.90;;;;;;4879560;29;20210;-70
2021/10/05 08:44:17;;;;;;;4.97;3.70;;;12.10;99.90;;;;;;4877378;29;20253;-69
2021/10/05 08:46:44;;;;;;;3.97;3.58;;;12.20;99.90;;;;;;4878508;29;20263;-69
2021/10/05 08:49:12;;;;;;;5.13;4.63;;;12.20;99.90;;;;;;4878580;29;20207;-69
2021/10/05 08:51:39;;;;;;;5.35;4.85;;;12.30;99.90;;;;;;4879293;29;20211;-70
2021/10/05 08:54:06;;;;;;;4.43;3.90;;;12.40;99.90;;;;;;4878643;29;20644;-70
2021/10/05 08:56:33;;;;;;;5.15;4.00;;;12.40;99.90;;;;;;4878505;29;20208;-69
2021/10/05 08:58:59;;;;;;;4.55;4.15;;;12.40;99.90;;;;;;4878988;29;20218;-70
2021/10/05 09:01:33;;;;;;;5.75;5.00;;;12.40;99.90;;;;;;4878648;29;20223;-69
2021/10/05 09:04:00;;;;;;;5.50;4.93;;;12.40;99.90;;;;;;4873918;29;20263;-69
2021/10/05 09:06:28;;;;;;;4.35;3.95;;;12.40;99.90;;;;;;4873400;29;20692;-69
2021/10/05 09:08:55;;;;;;;4.85;4.20;;;12.40;99.90;;;;;;4878460;29;20581;-69
2021/10/05 09:11:25;;;;;;;6.13;4.63;;;12.30;99.90;;;;;;4877475;29;20203;-69
2021/10/05 09:13:55;;;;;;;6.95;5.47;;;12.30;99.90;;;;;;4893449;29;20249;-69
2021/10/05 09:16:23;;;;;;;6.63;5.03;;;12.40;99.90;;;;;;4895852;29;20207;-70
2021/10/05 09:18:54;;;;;;;5.90;4.93;;;12.40;99.90;;;;;;4896748;29;20625;-69
2021/10/05 09:21:21;;;;;;;6.72;5.28;;;12.40;99.90;;;;;;4896751;29;20233;-70
2021/10/05 09:24:00;;;;;;;7.85;6.63;;;12.50;99.90;;;;;;4896819;29;20225;-70
2021/10/05 09:26:43;;;;;;;7.55;5.95;;;12.60;99.90;;;;;;4896521;29;20612;-70
2021/10/05 09:29:16;;;;;;;8.38;6.00;;;12.70;99.90;;;;;;4900215;29;20218;-69
2021/10/05 09:31:51;;;;;;;7.68;6.25;;;12.80;99.90;;;;;;4900027;29;20202;-70
2021/10/05 09:34:19;;;;;;;8.02;6.50;;;12.80;99.90;;;;;;4899331;29;20732;-70
2021/10/05 09:36:45;;;;;;;9.45;6.38;;;12.90;99.90;;;;;;4899414;29;20217;-70
2021/10/05 09:39:13;;;;;;;8.10;6.55;;;12.90;99.90;;;;;;4899720;29;20225;-70
2021/10/05 09:41:40;;;;;;;6.65;6.03;;;12.90;99.90;;;;;;4900021;29;20207;-69
2021/10/05 09:44:09;;;;;;;11.07;6.40;;;12.90;99.90;;;;;;4899334;29;20242;-69
2021/10/05 09:46:36;;;;;;;6.38;5.35;;;13.00;99.90;;;;;;4899143;29;20207;-69
2021/10/05 09:49:06;;;;;;;7.27;6.30;;;13.00;99.90;;;;;;4899655;29;20202;-69
2021/10/05 09:51:33;;;;;;;6.82;5.20;;;13.00;99.90;;;;;;4899662;29;20466;-69
2021/10/05 09:54:00;;;;;;;6.20;5.05;;;13.10;99.90;;;;;;4899220;29;20237;-70
2021/10/05 09:56:31;;;;;;;5.90;5.20;;;13.20;99.90;;;;;;4899150;29;20693;-70
2021/10/05 09:58:59;;;;;;;5.50;4.97;;;13.30;99.90;;;;;;4898820;29;20206;-70
2021/10/05 10:01:27;;;;;;;5.90;4.97;;;13.40;99.90;;;;;;4898158;29;20238;-70
2021/10/05 10:03:54;;;;;;;4.88;3.90;;;13.40;99.90;;;;;;4898545;29;20497;-70
2021/10/05 10:06:21;;;;;;;4.30;3.90;;;13.40;99.90;;;;;;4897912;29;20634;-69
2021/10/05 10:08:51;;;;;;;4.40;4.00;;;13.40;99.90;;;;;;4898412;29;20514;-70
2021/10/05 10:11:18;;;;;;;4.00;3.60;;;13.50;99.90;;;;;;4898260;29;20214;-70
2021/10/05 10:13:48;;;;;;;4.10;3.47;;;13.50;99.90;;;;;;4896785;29;20585;-70
2021/10/05 10:16:15;;;;;;;3.97;3.60;;;13.40;99.90;;;;;;4897629;29;20466;-69
2021/10/05 10:18:53;;;;;;;4.43;4.03;;;13.50;99.90;;;;;;4897586;29;20467;-70
2021/10/05 10:21:26;;;;;;;3.70;3.37;;;13.40;99.90;;;;;;4897592;29;20754;-69
2021/10/05 10:24:10;;;;;;;5.10;3.87;;;13.50;99.90;;;;;;4897183;29;20546;-69
2021/10/05 10:26:41;;;;;;;3.47;3.17;;;13.60;99.90;;;;;;4898634;29;20530;-70
2021/10/05 10:29:11;;;;;;;4.13;3.30;;;13.50;99.90;;;;;;4902116;29;20463;-69
2021/10/05 10:31:39;;;;;;;3.37;3.10;;;13.50;99.90;;;;;;4898988;29;20465;-69
2021/10/05 10:34:07;;;;;;;3.67;3.27;;;13.50;99.90;;;;;;4899739;29;20490;-69
2021/10/05 10:36:36;;;;;;;2.63;2.43;;;13.50;99.90;;;;;;4898768;29;20505;-70
2021/10/05 10:39:06;;;;;;;4.63;4.23;;;13.50;99.90;;;;;;4899322;29;20477;-70
2021/10/05 10:41:34;;;;;;;3.23;2.93;;;13.70;99.90;;;;;;4899879;29;20471;-69
2021/10/05 10:44:04;;;;;;;3.27;3.00;;;13.80;99.90;;;;;;4898920;29;20490;-69
2021/10/05 10:46:34;;;;;;;3.07;2.83;;;13.80;99.90;;;;;;4898116;29;20570;-70
2021/10/05 10:49:03;;;;;;;2.77;2.57;;;13.80;99.90;;;;;;4884732;29;20466;-70
2021/10/05 10:51:35;;;;;;;3.13;2.80;;;13.90;99.90;;;;;;4883410;29;20479;-70
2021/10/05 10:54:13;;;;;;;2.60;2.40;;;13.80;99.90;;;;;;4881266;29;21039;-69
2021/10/05 10:56:40;;;;;;;2.77;2.30;;;13.80;99.90;;;;;;4880962;29;20510;-69
2021/10/05 10:59:09;;;;;;;2.87;2.67;;;13.80;99.90;;;;;;4881188;29;20496;-69
2021/10/05 11:01:39;;;;;;;2.40;2.20;;;13.80;99.90;;;;;;4880991;29;20530;-70
2021/10/05 11:04:08;;;;;;;2.20;2.00;;;13.80;99.90;;;;;;4881302;29;20646;-70
2021/10/05 11:06:35;;;;;;;2.50;2.30;;;13.80;99.90;;;;;;4879216;29;20467;-69
2021/10/05 11:09:03;;;;;;;2.50;2.30;;;13.70;99.90;;;;;;4880527;29;20474;-69
2021/10/05 11:11:36;;;;;;;2.40;2.07;;;13.70;99.90;;;;;;4879963;29;20475;-69
2021/10/05 11:14:04;;;;;;;2.20;1.93;;;13.70;99.90;;;;;;4892920;29;20534;-69
2021/10/05 11:16:32;;;;;;;2.40;2.20;;;13.70;99.90;;;;;;4897385;29;20509;-69
2021/10/05 11:19:09;;;;;;;2.60;2.40;;;13.70;99.90;;;;;;4898339;29;20834;-70
2021/10/05 11:21:38;;;;;;;2.80;2.60;;;13.70;99.90;;;;;;4897654;29;20482;-69
2021/10/05 11:24:06;;;;;;;2.70;2.30;;;13.70;99.90;;;;;;4898472;29;20494;-69
2021/10/05 11:26:34;;;;;;;2.70;2.50;;;13.80;99.90;;;;;;4896122;29;20494;-69
2021/10/05 11:29:02;;;;;;;1.83;1.70;;;13.80;99.90;;;;;;4898361;29;20470;-70
2021/10/05 11:31:39;;;;;;;2.07;1.90;;;13.80;99.90;;;;;;4898326;29;20477;-69
2021/10/05 11:34:07;;;;;;;1.70;1.60;;;13.90;99.90;;;;;;4897485;29;20564;-69
2021/10/05 11:36:36;;;;;;;2.23;1.93;;;14.20;99.90;;;;;;4897632;29;20458;-69
2021/10/05 11:39:05;;;;;;;2.67;2.47;;;14.40;99.90;;;;;;4898327;29;20470;-69
2021/10/05 11:41:38;;;;;;;2.60;2.40;;;14.40;99.90;;;;;;4898631;29;20875;-69
2021/10/05 11:44:17;;;;;;;2.17;1.97;;;14.40;99.90;;;;;;4898004;29;20487;-70
2021/10/05 11:46:56;;;;;;;2.10;1.90;;;14.40;99.90;;;;;;4897220;29;20545;-70
2021/10/05 11:49:27;;;;;;;1.80;1.70;;;14.20;99.90;;;;;;4896970;29;20469;-69
2021/10/05 11:51:55;;;;;;;1.57;1.47;;;14.20;99.90;;;;;;4897647;29;20470;-70
2021/10/05 11:54:24;;;;;;;1.97;1.87;;;14.20;99.90;;;;;;4897700;29;20541;-69
2021/10/05 11:56:51;;;;;;;2.60;2.37;;;14.20;99.90;;;;;;4895840;29;20832;-69
2021/10/05 11:59:26;;;;;;;1.73;1.63;;;14.20;99.90;;;;;;4897299;29;20473;-69
2021/10/05 12:01:58;;;;;;;2.00;1.80;;;14.20;99.90;;;;;;4896797;29;20550;-70
2021/10/05 12:04:28;;;;;;;2.00;1.87;;;14.20;99.90;;;;;;4897076;29;20491;-69
2021/10/05 12:06:56;;;;;;;1.70;1.40;;;14.20;99.90;;;;;;4896256;29;20466;-70
2021/10/05 12:09:27;;;;;;;1.60;1.50;;;14.30;99.90;;;;;;4897737;29;20471;-70
2021/10/05 12:11:58;;;;;;;1.80;1.70;;;14.30;99.90;;;;;;4896601;29;20469;-69
2021/10/05 12:14:31;;;;;;;1.60;1.50;;;14.30;99.90;;;;;;4897564;29;20482;-69
2021/10/05 12:17:00;;;;;;;1.80;1.50;;;14.30;99.90;;;;;;4896223;29;20470;-69
2021/10/05 12:19:30;;;;;;;2.50;1.47;;;14.30;99.90;;;;;;4897532;29;20469;-70
2021/10/05 12:21:58;;;;;;;1.50;1.40;;;14.30;99.90;;;;;;4900780;29;20477;-70
2021/10/05 12:24:35;;;;;;;1.30;1.20;;;14.40;99.90;;;;;;4900066;23;20546;-74
2021/10/05 12:27:02;;;;;;;1.40;1.30;;;14.50;99.90;;;;;;4886289;29;20486;-72
2021/10/05 12:29:29;;;;;;;1.60;1.50;;;14.60;99.90;;;;;;4876163;29;20844;-72
2021/10/05 12:31:58;;;;;;;1.60;1.37;;;14.60;99.90;;;;;;4876615;29;20472;-72
2021/10/05 12:34:37;;;;;;;1.60;1.40;;;14.80;99.90;;;;;;4890960;29;20871;-71
2021/10/05 12:37:06;;;;;;;1.40;1.30;;;14.90;99.90;;;;;;4876171;29;20471;-72
2021/10/05 12:39:33;;;;;;;1.47;0.90;;;14.90;99.90;;;;;;4876200;29;20846;-72
2021/10/05 12:42:02;;;;;;;1.30;1.10;;;14.90;99.90;;;;;;4876759;29;20844;-71
2021/10/05 12:44:32;;;;;;;1.40;1.30;;;14.90;99.90;;;;;;4875842;29;20490;-71